sensor_id;sensor_type;location;lat;lon;timestamp;pressure;altitude;pressure_sealevel;temperature;humidity
61682;BME280;47577;43.610;25.010;2024-03-23T00:53:14;100575.78;;;2.93;80.21
61682;BME280;47577;43.610;25.010;2024-03-23T00:55:43;100571.41;;;2.88;80.66
61682;BME280;47577;43.610;25.010;2024-03-23T00:58:08;100562.66;;;2.93;80.15
61682;BME280;47577;43.610;25.010;2024-03-23T01:00:34;100572.28;;;3.05;80.35
61682;BME280;47577;43.610;25.010;2024-03-23T01:03:00;100562.63;;;3.06;79.73
61682;BME280;47577;43.610;25.010;2024-03-23T01:05:25;100569.66;;;3.07;79.76
61682;BME280;47577;43.610;25.010;2024-03-23T01:07:51;100564.41;;;3.05;78.93
61682;BME280;47577;43.610;25.010;2024-03-23T01:10:16;100559.13;;;3.01;80.03
61682;BME280;47577;43.610;25.010;2024-03-23T01:12:42;100562.66;;;3.00;79.72
61682;BME280;47577;43.610;25.010;2024-03-23T01:15:08;100570.50;;;3.06;79.35
61682;BME280;47577;43.610;25.010;2024-03-23T01:17:34;100560.03;;;2.98;80.26
61682;BME280;47577;43.610;25.010;2024-03-23T01:19:59;100564.41;;;3.11;80.10
61682;BME280;47577;43.610;25.010;2024-03-23T01:22:25;100566.13;;;3.17;80.91
61682;BME280;47577;43.610;25.010;2024-03-23T01:24:51;100566.13;;;3.31;79.38
61682;BME280;47577;43.610;25.010;2024-03-23T01:27:16;100565.25;;;3.29;79.37
61682;BME280;47577;43.610;25.010;2024-03-23T01:29:42;100560.88;;;3.43;79.68
61682;BME280;47577;43.610;25.010;2024-03-23T01:32:07;100561.72;;;3.42;80.50
61682;BME280;47577;43.610;25.010;2024-03-23T01:34:33;100559.94;;;3.61;79.78
61682;BME280;47577;43.610;25.010;2024-03-23T01:36:58;100558.16;;;3.76;79.18
61682;BME280;47577;43.610;25.010;2024-03-23T01:39:24;100561.63;;;3.82;79.15
61682;BME280;47577;43.610;25.010;2024-03-23T01:41:50;100565.97;;;3.90;79.11
61682;BME280;47577;43.610;25.010;2024-03-23T01:44:16;100555.47;;;3.88;78.12
61682;BME280;47577;43.610;25.010;2024-03-23T01:46:43;100550.16;;;3.99;78.37
61682;BME280;47577;43.610;25.010;2024-03-23T01:49:09;100550.06;;;4.13;76.02
61682;BME280;47577;43.610;25.010;2024-03-23T01:51:36;100548.38;;;4.04;75.39
61682;BME280;47577;43.610;25.010;2024-03-23T01:54:02;100547.53;;;3.97;74.87
61682;BME280;47577;43.610;25.010;2024-03-23T01:56:37;100552.00;;;3.71;75.56
61682;BME280;47577;43.610;25.010;2024-03-23T01:59:06;100550.28;;;3.59;76.14
61682;BME280;47577;43.610;25.010;2024-03-23T02:01:35;100553.78;;;3.55;76.75
61682;BME280;47577;43.610;25.010;2024-03-23T02:04:03;100546.81;;;3.41;76.96
61682;BME280;47577;43.610;25.010;2024-03-23T02:06:29;100544.25;;;3.32;76.83
61682;BME280;47577;43.610;25.010;2024-03-23T02:08:55;100554.75;;;3.21;78.99
61682;BME280;47577;43.610;25.010;2024-03-23T02:11:21;100556.53;;;3.13;79.92
61682;BME280;47577;43.610;25.010;2024-03-23T02:13:46;100546.88;;;3.03;80.98
61682;BME280;47577;43.610;25.010;2024-03-23T02:16:12;100548.63;;;2.95;81.25
61682;BME280;47577;43.610;25.010;2024-03-23T02:18:38;100545.13;;;2.89;80.16
61682;BME280;47577;43.610;25.010;2024-03-23T02:21:04;100549.50;;;2.84;79.97
61682;BME280;47577;43.610;25.010;2024-03-23T02:23:30;100558.25;;;2.65;81.64
61682;BME280;47577;43.610;25.010;2024-03-23T02:25:55;100552.97;;;2.48;82.89
61682;BME280;47577;43.610;25.010;2024-03-23T02:28:21;100561.69;;;2.37;83.65
61682;BME280;47577;43.610;25.010;2024-03-23T02:30:49;100555.56;;;2.26;83.70
61682;BME280;47577;43.610;25.010;2024-03-23T02:33:14;100549.38;;;2.04;84.97
61682;BME280;47577;43.610;25.010;2024-03-23T02:35:40;100561.59;;;2.05;84.90
61682;BME280;47577;43.610;25.010;2024-03-23T02:38:06;100545.88;;;2.07;84.27
61682;BME280;47577;43.610;25.010;2024-03-23T02:40:31;100556.34;;;2.05;84.50
61682;BME280;47577;43.610;25.010;2024-03-23T02:42:57;100561.56;;;1.96;84.58
61682;BME280;47577;43.610;25.010;2024-03-23T02:45:22;100565.03;;;1.86;85.55
61682;BME280;47577;43.610;25.010;2024-03-23T02:47:48;100552.00;;;2.04;85.61
61682;BME280;47577;43.610;25.010;2024-03-23T02:50:20;100557.28;;;2.18;84.46
61682;BME280;47577;43.610;25.010;2024-03-23T02:52:46;100550.31;;;2.29;83.88
61682;BME280;47577;43.610;25.010;2024-03-23T02:55:12;100535.47;;;2.37;83.39
61682;BME280;47577;43.610;25.010;2024-03-23T02:57:38;100560.88;;;2.69;83.55
61682;BME280;47577;43.610;25.010;2024-03-23T03:00:04;100556.50;;;2.70;81.17
61682;BME280;47577;43.610;25.010;2024-03-23T03:02:31;100562.63;;;2.72;80.33
61682;BME280;47577;43.610;25.010;2024-03-23T03:04:57;100555.63;;;2.60;81.17
61682;BME280;47577;43.610;25.010;2024-03-23T03:07:22;100562.66;;;2.67;80.89
61682;BME280;47577;43.610;25.010;2024-03-23T03:09:48;100547.75;;;2.60;80.74
61682;BME280;47577;43.610;25.010;2024-03-23T03:12:13;100560.00;;;2.61;81.49
61682;BME280;47577;43.610;25.010;2024-03-23T03:14:39;100545.13;;;2.59;80.85
61682;BME280;47577;43.610;25.010;2024-03-23T03:17:05;100539.84;;;2.51;81.06
61682;BME280;47577;43.610;25.010;2024-03-23T03:19:30;100547.72;;;2.55;82.11
61682;BME280;47577;43.610;25.010;2024-03-23T03:21:56;100545.09;;;2.55;81.65
61682;BME280;47577;43.610;25.010;2024-03-23T03:24:22;100545.13;;;2.57;81.37
61682;BME280;47577;43.610;25.010;2024-03-23T03:26:47;100546.88;;;2.61;80.44
61682;BME280;47577;43.610;25.010;2024-03-23T03:29:13;100545.97;;;2.59;81.25
61682;BME280;47577;43.610;25.010;2024-03-23T03:31:39;100547.75;;;2.59;80.78
61682;BME280;47577;43.610;25.010;2024-03-23T03:34:04;100548.59;;;2.61;80.17
61682;BME280;47577;43.610;25.010;2024-03-23T03:36:30;100547.72;;;2.51;80.91
61682;BME280;47577;43.610;25.010;2024-03-23T03:38:56;100543.34;;;2.45;80.98
61682;BME280;47577;43.610;25.010;2024-03-23T03:41:21;100538.94;;;2.27;82.52
61682;BME280;47577;43.610;25.010;2024-03-23T03:43:47;100537.16;;;2.11;82.78
61682;BME280;47577;43.610;25.010;2024-03-23T03:46:13;100543.31;;;2.24;83.16
61682;BME280;47577;43.610;25.010;2024-03-23T03:48:38;100531.06;;;2.26;83.60
61682;BME280;47577;43.610;25.010;2024-03-23T03:51:04;100538.97;;;2.35;82.80
61682;BME280;47577;43.610;25.010;2024-03-23T03:53:30;100535.44;;;2.33;82.51
61682;BME280;47577;43.610;25.010;2024-03-23T03:55:56;100526.72;;;2.42;81.67
61682;BME280;47577;43.610;25.010;2024-03-23T03:58:22;100520.63;;;2.58;80.74
61682;BME280;47577;43.610;25.010;2024-03-23T04:00:47;100518.00;;;2.60;79.21
61682;BME280;47577;43.610;25.010;2024-03-23T04:03:13;100536.34;;;2.44;80.58
61682;BME280;47577;43.610;25.010;2024-03-23T04:05:39;100528.41;;;2.15;81.85
61682;BME280;47577;43.610;25.010;2024-03-23T04:08:06;100523.00;;;1.67;84.60
61682;BME280;47577;43.610;25.010;2024-03-23T04:10:32;100532.56;;;1.57;85.92
61682;BME280;47577;43.610;25.010;2024-03-23T04:12:58;100521.97;;;1.37;86.23
61682;BME280;47577;43.610;25.010;2024-03-23T04:15:23;100523.69;;;1.32;87.06
61682;BME280;47577;43.610;25.010;2024-03-23T04:17:49;100523.69;;;1.32;87.45
61682;BME280;47577;43.610;25.010;2024-03-23T04:20:14;100519.28;;;1.25;87.05
61682;BME280;47577;43.610;25.010;2024-03-23T04:22:45;100520.16;;;1.27;87.03
61682;BME280;47577;43.610;25.010;2024-03-23T04:25:11;100534.13;;;1.26;87.63
61682;BME280;47577;43.610;25.010;2024-03-23T04:27:37;100519.28;;;1.22;86.96
61682;BME280;47577;43.610;25.010;2024-03-23T04:30:03;100525.47;;;1.42;86.73
61682;BME280;47577;43.610;25.010;2024-03-23T04:32:34;100519.41;;;1.48;85.99
61682;BME280;47577;43.610;25.010;2024-03-23T04:35:00;100519.47;;;1.57;85.75
61682;BME280;47577;43.610;25.010;2024-03-23T04:37:26;100516.91;;;1.76;85.47
61682;BME280;47577;43.610;25.010;2024-03-23T04:39:51;100531.06;;;2.26;86.00
61682;BME280;47577;43.610;25.010;2024-03-23T04:42:18;100524.97;;;2.61;84.48
61682;BME280;47577;43.610;25.010;2024-03-23T04:44:43;100523.22;;;3.15;82.68
61682;BME280;47577;43.610;25.010;2024-03-23T04:47:10;100510.94;;;3.37;80.95
61682;BME280;47577;43.610;25.010;2024-03-23T04:49:36;100523.06;;;3.71;80.37
61682;BME280;47577;43.610;25.010;2024-03-23T04:52:05;100527.38;;;3.89;78.08
61682;BME280;47577;43.610;25.010;2024-03-23T04:54:31;100522.06;;;4.06;76.55
61682;BME280;47577;43.610;25.010;2024-03-23T04:56:59;100521.13;;;4.10;76.54
61682;BME280;47577;43.610;25.010;2024-03-23T04:59:25;100524.59;;;4.19;76.12
61682;BME280;47577;43.610;25.010;2024-03-23T05:01:51;100534.94;;;4.52;75.47
61682;BME280;47577;43.610;25.010;2024-03-23T05:04:16;100526.03;;;4.71;75.30
61682;BME280;47577;43.610;25.010;2024-03-23T05:06:42;100526.66;;;5.01;73.00
61682;BME280;47577;43.610;25.010;2024-03-23T05:09:07;100533.63;;;5.07;72.82
61682;BME280;47577;43.610;25.010;2024-03-23T05:11:40;100523.75;;;5.27;72.75
61682;BME280;47577;43.610;25.010;2024-03-23T05:14:07;100518.47;;;5.29;72.10
61682;BME280;47577;43.610;25.010;2024-03-23T05:16:33;100517.56;;;5.33;71.25
61682;BME280;47577;43.610;25.010;2024-03-23T05:18:58;100508.66;;;5.43;71.38
61682;BME280;47577;43.610;25.010;2024-03-23T05:21:24;100506.78;;;5.53;70.89
61682;BME280;47577;43.610;25.010;2024-03-23T05:23:50;100515.47;;;5.63;70.45
61682;BME280;47577;43.610;25.010;2024-03-23T05:26:16;100513.69;;;5.65;70.45
61682;BME280;47577;43.610;25.010;2024-03-23T05:28:42;100510.91;;;5.79;69.48
61682;BME280;47577;43.610;25.010;2024-03-23T05:31:07;100515.91;;;6.00;69.83
61682;BME280;47577;43.610;25.010;2024-03-23T05:33:35;100521.09;;;6.08;68.59
61682;BME280;47577;43.610;25.010;2024-03-23T05:36:02;100516.41;;;6.30;67.61
61682;BME280;47577;43.610;25.010;2024-03-23T05:38:29;100512.84;;;6.33;68.61
61682;BME280;47577;43.610;25.010;2024-03-23T05:40:58;100509.94;;;6.51;67.67
61682;BME280;47577;43.610;25.010;2024-03-23T05:43:24;100508.78;;;6.69;67.27
61682;BME280;47577;43.610;25.010;2024-03-23T05:45:57;100512.13;;;6.79;66.75
61682;BME280;47577;43.610;25.010;2024-03-23T05:48:23;100523.19;;;7.03;65.70
61682;BME280;47577;43.610;25.010;2024-03-23T05:50:50;100510.47;;;7.23;64.63
61682;BME280;47577;43.610;25.010;2024-03-23T05:53:16;100504.56;;;7.57;63.28
61682;BME280;47577;43.610;25.010;2024-03-23T05:55:42;100502.28;;;7.82;60.58
61682;BME280;47577;43.610;25.010;2024-03-23T05:58:08;100489.56;;;7.98;59.77
61682;BME280;47577;43.610;25.010;2024-03-23T06:00:33;100500.53;;;8.22;58.90
61682;BME280;47577;43.610;25.010;2024-03-23T06:03:00;100505.41;;;8.40;59.67
61682;BME280;47577;43.610;25.010;2024-03-23T06:05:26;100490.09;;;8.55;59.03
61682;BME280;47577;43.610;25.010;2024-03-23T06:07:52;100499.22;;;8.43;61.20
61682;BME280;47577;43.610;25.010;2024-03-23T06:10:18;100498.47;;;8.36;62.02
61682;BME280;47577;43.610;25.010;2024-03-23T06:12:45;100482.50;;;8.39;62.77
61682;BME280;47577;43.610;25.010;2024-03-23T06:15:11;100488.34;;;8.55;62.55
61682;BME280;47577;43.610;25.010;2024-03-23T06:17:37;100492.25;;;8.76;61.84
61682;BME280;47577;43.610;25.010;2024-03-23T06:20:03;100489.91;;;8.99;62.36
61682;BME280;47577;43.610;25.010;2024-03-23T06:22:29;100487.88;;;9.08;65.17
61682;BME280;47577;43.610;25.010;2024-03-23T06:24:55;100484.94;;;9.19;66.17
61682;BME280;47577;43.610;25.010;2024-03-23T06:27:21;100484.75;;;9.27;66.02
61682;BME280;47577;43.610;25.010;2024-03-23T06:29:46;100493.44;;;9.32;66.32
61682;BME280;47577;43.610;25.010;2024-03-23T06:32:12;100483.03;;;9.24;65.98
61682;BME280;47577;43.610;25.010;2024-03-23T06:34:37;100486.34;;;9.32;66.44
61682;BME280;47577;43.610;25.010;2024-03-23T06:37:03;100489.97;;;9.30;65.94
61682;BME280;47577;43.610;25.010;2024-03-23T06:39:29;100485.53;;;9.30;65.89
61682;BME280;47577;43.610;25.010;2024-03-23T06:41:54;100488.06;;;9.35;65.85
61682;BME280;47577;43.610;25.010;2024-03-23T06:44:20;100494.88;;;9.44;66.92
61682;BME280;47577;43.610;25.010;2024-03-23T06:46:47;100486.69;;;9.53;67.26
61682;BME280;47577;43.610;25.010;2024-03-23T06:49:14;100478.63;;;9.56;67.11
61682;BME280;47577;43.610;25.010;2024-03-23T06:51:40;100478.59;;;9.58;66.47
61682;BME280;47577;43.610;25.010;2024-03-23T06:54:06;100480.97;;;9.67;68.31
61682;BME280;47577;43.610;25.010;2024-03-23T06:56:32;100474.66;;;9.71;67.44
61682;BME280;47577;43.610;25.010;2024-03-23T06:58:58;100489.41;;;9.81;69.11
61682;BME280;47577;43.610;25.010;2024-03-23T07:01:23;100476.94;;;9.85;67.64
61682;BME280;47577;43.610;25.010;2024-03-23T07:03:49;100473.06;;;9.95;67.47
61682;BME280;47577;43.610;25.010;2024-03-23T07:06:15;100478.06;;;10.06;66.63
61682;BME280;47577;43.610;25.010;2024-03-23T07:08:40;100487.16;;;10.27;65.71
61682;BME280;47577;43.610;25.010;2024-03-23T07:11:06;100478.97;;;10.35;65.13
61682;BME280;47577;43.610;25.010;2024-03-23T07:13:31;100476.03;;;10.44;65.52
61682;BME280;47577;43.610;25.010;2024-03-23T07:15:58;100479.06;;;10.60;65.44
61682;BME280;47577;43.610;25.010;2024-03-23T07:18:25;100484.78;;;10.74;65.99
61682;BME280;47577;43.610;25.010;2024-03-23T07:20:54;100477.63;;;10.76;65.28
61682;BME280;47577;43.610;25.010;2024-03-23T07:23:21;100476.94;;;10.96;66.13
61682;BME280;47577;43.610;25.010;2024-03-23T07:26:01;100479.34;;;11.04;65.01
61682;BME280;47577;43.610;25.010;2024-03-23T07:28:27;100468.44;;;11.12;65.43
61682;BME280;47577;43.610;25.010;2024-03-23T07:31:08;100479.25;;;11.32;65.08
61682;BME280;47577;43.610;25.010;2024-03-23T07:33:35;100474.47;;;11.42;63.44
61682;BME280;47577;43.610;25.010;2024-03-23T07:36:01;100481.94;;;11.56;63.87
61682;BME280;47577;43.610;25.010;2024-03-23T07:38:28;100479.59;;;11.72;62.06
61682;BME280;47577;43.610;25.010;2024-03-23T07:41:10;100478.31;;;11.82;61.65
61682;BME280;47577;43.610;25.010;2024-03-23T07:43:38;100472.38;;;11.99;62.27
61682;BME280;47577;43.610;25.010;2024-03-23T07:46:05;100478.84;;;12.16;61.45
61682;BME280;47577;43.610;25.010;2024-03-23T07:48:32;100476.41;;;12.33;61.45
61682;BME280;47577;43.610;25.010;2024-03-23T07:53:33;100476.50;;;12.74;46.97
61682;BME280;47577;43.610;25.010;2024-03-23T07:56:01;100470.91;;;12.80;47.01
61682;BME280;47577;43.610;25.010;2024-03-23T07:58:27;100462.00;;;12.82;46.91
61682;BME280;47577;43.610;25.010;2024-03-23T08:00:54;100463.91;;;12.98;44.43
61682;BME280;47577;43.610;25.010;2024-03-23T08:03:20;100469.00;;;13.05;43.97
61682;BME280;47577;43.610;25.010;2024-03-23T08:05:45;100454.81;;;13.04;44.48
61682;BME280;47577;43.610;25.010;2024-03-23T08:08:11;100456.13;;;13.14;44.49
61682;BME280;47577;43.610;25.010;2024-03-23T08:10:46;100462.03;;;13.43;43.15
61682;BME280;47577;43.610;25.010;2024-03-23T08:13:12;100461.75;;;13.49;42.47
61682;BME280;47577;43.610;25.010;2024-03-23T08:15:37;100464.22;;;13.73;44.18
61682;BME280;47577;43.610;25.010;2024-03-23T08:18:03;100463.03;;;13.80;40.86
61682;BME280;47577;43.610;25.010;2024-03-23T08:20:29;100453.41;;;13.95;41.86
61682;BME280;47577;43.610;25.010;2024-03-23T08:22:55;100455.50;;;14.07;43.36
61682;BME280;47577;43.610;25.010;2024-03-23T08:25:21;100462.16;;;14.37;39.55
61682;BME280;47577;43.610;25.010;2024-03-23T08:27:47;100452.09;;;14.42;38.31
61682;BME280;47577;43.610;25.010;2024-03-23T08:30:12;100454.38;;;14.50;39.68
61682;BME280;47577;43.610;25.010;2024-03-23T08:32:38;100437.94;;;14.57;38.98
61682;BME280;47577;43.610;25.010;2024-03-23T08:35:04;100444.34;;;14.72;37.62
61682;BME280;47577;43.610;25.010;2024-03-23T08:37:30;100433.81;;;14.87;41.14
61682;BME280;47577;43.610;25.010;2024-03-23T08:39:55;100431.47;;;14.80;32.14
61682;BME280;47577;43.610;25.010;2024-03-23T08:42:21;100436.19;;;14.93;31.14
61682;BME280;47577;43.610;25.010;2024-03-23T08:44:47;100430.84;;;14.93;33.71
61682;BME280;47577;43.610;25.010;2024-03-23T08:47:15;100428.94;;;14.95;33.69
61682;BME280;47577;43.610;25.010;2024-03-23T08:49:41;100423.19;;;15.03;30.74
61682;BME280;47577;43.610;25.010;2024-03-23T08:52:07;100424.38;;;15.14;30.39
61682;BME280;47577;43.610;25.010;2024-03-23T08:54:33;100417.66;;;15.23;29.51
61682;BME280;47577;43.610;25.010;2024-03-23T08:56:59;100415.00;;;15.23;30.45
61682;BME280;47577;43.610;25.010;2024-03-23T08:59:25;100413.13;;;15.41;30.45
61682;BME280;47577;43.610;25.010;2024-03-23T09:01:51;100416.94;;;15.53;32.54
61682;BME280;47577;43.610;25.010;2024-03-23T09:04:16;100406.69;;;15.61;30.93
61682;BME280;47577;43.610;25.010;2024-03-23T09:06:43;100397.25;;;15.87;29.30
61682;BME280;47577;43.610;25.010;2024-03-23T09:09:08;100397.25;;;15.87;26.85
61682;BME280;47577;43.610;25.010;2024-03-23T09:11:34;100386.00;;;15.97;28.64
61682;BME280;47577;43.610;25.010;2024-03-23T09:13:59;100396.03;;;16.09;28.26
61682;BME280;47577;43.610;25.010;2024-03-23T09:16:25;100388.66;;;15.97;28.65
61682;BME280;47577;43.610;25.010;2024-03-23T09:18:51;100384.88;;;15.85;28.75
61682;BME280;47577;43.610;25.010;2024-03-23T09:21:18;100388.50;;;16.16;30.68
61682;BME280;47577;43.610;25.010;2024-03-23T09:23:45;100379.50;;;16.17;27.38
61682;BME280;47577;43.610;25.010;2024-03-23T09:26:11;100375.00;;;16.01;28.24
61682;BME280;47577;43.610;25.010;2024-03-23T09:28:36;100374.31;;;16.14;28.37
61682;BME280;47577;43.610;25.010;2024-03-23T09:31:07;100377.00;;;16.30;28.74
61682;BME280;47577;43.610;25.010;2024-03-23T09:33:33;100359.16;;;16.13;27.87
61682;BME280;47577;43.610;25.010;2024-03-23T09:36:03;100368.41;;;16.23;28.59
61682;BME280;47577;43.610;25.010;2024-03-23T09:38:29;100357.06;;;16.34;28.85
61682;BME280;47577;43.610;25.010;2024-03-23T09:40:55;100358.13;;;16.31;30.96
61682;BME280;47577;43.610;25.010;2024-03-23T09:43:20;100352.53;;;16.34;29.28
61682;BME280;47577;43.610;25.010;2024-03-23T09:45:46;100334.84;;;16.16;29.16
61682;BME280;47577;43.610;25.010;2024-03-23T09:48:12;100350.91;;;16.48;31.41
61682;BME280;47577;43.610;25.010;2024-03-23T09:50:39;100357.03;;;16.50;29.48
61682;BME280;47577;43.610;25.010;2024-03-23T09:53:06;100329.09;;;16.38;29.99
61682;BME280;47577;43.610;25.010;2024-03-23T09:55:33;100333.41;;;16.71;30.59
61682;BME280;47577;43.610;25.010;2024-03-23T09:57:59;100316.97;;;16.91;30.55
61682;BME280;47577;43.610;25.010;2024-03-23T10:00:25;100328.69;;;17.05;30.87
61682;BME280;47577;43.610;25.010;2024-03-23T10:02:51;100321.78;;;17.29;29.73
61682;BME280;47577;43.610;25.010;2024-03-23T10:05:23;100326.47;;;17.54;28.74
61682;BME280;47577;43.610;25.010;2024-03-23T10:07:49;100318.78;;;17.63;28.67
61682;BME280;47577;43.610;25.010;2024-03-23T10:10:16;100311.06;;;17.71;29.56
61682;BME280;47577;43.610;25.010;2024-03-23T10:12:49;100318.00;;;18.02;31.60
61682;BME280;47577;43.610;25.010;2024-03-23T10:15:22;100313.59;;;18.01;28.44
61682;BME280;47577;43.610;25.010;2024-03-23T10:17:48;100305.91;;;17.53;29.71
61682;BME280;47577;43.610;25.010;2024-03-23T10:20:21;100305.69;;;17.71;31.14
61682;BME280;47577;43.610;25.010;2024-03-23T10:22:49;100288.25;;;17.91;30.70
61682;BME280;47577;43.610;25.010;2024-03-23T10:25:15;100285.31;;;18.08;29.35
61682;BME280;47577;43.610;25.010;2024-03-23T10:27:40;100283.59;;;18.07;29.19
61682;BME280;47577;43.610;25.010;2024-03-23T10:32:36;100278.41;;;17.92;30.07
61682;BME280;47577;43.610;25.010;2024-03-23T10:35:21;100263.78;;;17.81;29.21
61682;BME280;47577;43.610;25.010;2024-03-23T10:37:48;100269.88;;;17.98;29.47
61682;BME280;47577;43.610;25.010;2024-03-23T10:40:17;100253.31;;;17.77;28.29
61682;BME280;47577;43.610;25.010;2024-03-23T10:42:44;100255.25;;;17.89;28.73
61682;BME280;47577;43.610;25.010;2024-03-23T10:45:10;100245.88;;;17.95;30.00
61682;BME280;47577;43.610;25.010;2024-03-23T10:47:36;100238.19;;;18.16;29.86
61682;BME280;47577;43.610;25.010;2024-03-23T10:50:05;100231.34;;;18.37;28.73
61682;BME280;47577;43.610;25.010;2024-03-23T10:52:33;100231.22;;;18.26;28.94
61682;BME280;47577;43.610;25.010;2024-03-23T10:55:00;100225.00;;;18.51;30.02
61682;BME280;47577;43.610;25.010;2024-03-23T10:57:35;100224.09;;;18.12;29.24
61682;BME280;47577;43.610;25.010;2024-03-23T11:00:04;100216.50;;;18.44;30.30
61682;BME280;47577;43.610;25.010;2024-03-23T11:02:30;100218.75;;;18.63;29.49
61682;BME280;47577;43.610;25.010;2024-03-23T11:04:56;100211.19;;;18.17;29.92
61682;BME280;47577;43.610;25.010;2024-03-23T11:07:32;100213.69;;;18.33;29.09
61682;BME280;47577;43.610;25.010;2024-03-23T11:09:59;100200.31;;;18.19;30.08
61682;BME280;47577;43.610;25.010;2024-03-23T11:12:29;100191.19;;;18.60;29.81
61682;BME280;47577;43.610;25.010;2024-03-23T11:15:04;100203.78;;;18.59;29.58
61682;BME280;47577;43.610;25.010;2024-03-23T11:17:31;100191.81;;;18.12;29.73
61682;BME280;47577;43.610;25.010;2024-03-23T11:20:04;100182.59;;;18.68;31.46
61682;BME280;47577;43.610;25.010;2024-03-23T11:22:41;100175.25;;;18.95;28.17
61682;BME280;47577;43.610;25.010;2024-03-23T11:25:20;100166.22;;;19.21;29.85
61682;BME280;47577;43.610;25.010;2024-03-23T11:27:47;100160.50;;;19.49;28.09
61682;BME280;47577;43.610;25.010;2024-03-23T11:30:14;100170.69;;;19.09;28.06
61682;BME280;47577;43.610;25.010;2024-03-23T11:32:47;100161.38;;;18.50;28.39
61682;BME280;47577;43.610;25.010;2024-03-23T11:35:33;100159.81;;;18.97;29.42
61682;BME280;47577;43.610;25.010;2024-03-23T11:38:10;100151.25;;;18.54;29.79
61682;BME280;47577;43.610;25.010;2024-03-23T11:40:37;100138.75;;;19.15;29.40
61682;BME280;47577;43.610;25.010;2024-03-23T11:43:17;100140.16;;;19.21;28.12
61682;BME280;47577;43.610;25.010;2024-03-23T11:45:44;100124.50;;;19.26;28.66
61682;BME280;47577;43.610;25.010;2024-03-23T11:48:17;100118.03;;;19.64;29.26
61682;BME280;47577;43.610;25.010;2024-03-23T11:50:45;100116.06;;;19.90;28.41
61682;BME280;47577;43.610;25.010;2024-03-23T11:53:14;100123.44;;;19.16;27.75
61682;BME280;47577;43.610;25.010;2024-03-23T11:55:56;100115.56;;;19.61;27.88
61682;BME280;47577;43.610;25.010;2024-03-23T11:58:23;100116.47;;;19.38;27.07
61682;BME280;47577;43.610;25.010;2024-03-23T12:00:51;100117.53;;;19.11;27.68
61682;BME280;47577;43.610;25.010;2024-03-23T12:03:20;100106.88;;;19.09;27.31
61682;BME280;47577;43.610;25.010;2024-03-23T12:05:50;100092.72;;;19.18;28.71
61682;BME280;47577;43.610;25.010;2024-03-23T12:10:52;100085.81;;;20.09;28.66
61682;BME280;47577;43.610;25.010;2024-03-23T12:13:20;100072.31;;;20.43;27.96
61682;BME280;47577;43.610;25.010;2024-03-23T12:15:47;100081.38;;;20.54;27.49
61682;BME280;47577;43.610;25.010;2024-03-23T12:18:13;100076.94;;;19.85;27.72
61682;BME280;47577;43.610;25.010;2024-03-23T12:20:39;100059.53;;;20.00;25.22
61682;BME280;47577;43.610;25.010;2024-03-23T12:23:12;100055.28;;;20.20;25.47
61682;BME280;47577;43.610;25.010;2024-03-23T12:25:39;100069.38;;;20.24;26.40
61682;BME280;47577;43.610;25.010;2024-03-23T12:28:06;100060.38;;;19.78;26.00
61682;BME280;47577;43.610;25.010;2024-03-23T12:30:34;100061.78;;;19.71;25.90
61682;BME280;47577;43.610;25.010;2024-03-23T12:33:02;100053.88;;;19.10;26.98
61682;BME280;47577;43.610;25.010;2024-03-23T12:35:28;100050.66;;;19.40;26.11
61682;BME280;47577;43.610;25.010;2024-03-23T12:37:54;100039.66;;;19.43;26.38
61682;BME280;47577;43.610;25.010;2024-03-23T12:40:20;100043.03;;;19.69;25.91
61682;BME280;47577;43.610;25.010;2024-03-23T12:42:45;100041.63;;;19.88;25.17
61682;BME280;47577;43.610;25.010;2024-03-23T12:45:11;100035.13;;;19.90;25.17
61682;BME280;47577;43.610;25.010;2024-03-23T12:47:37;100023.59;;;19.77;25.07
61682;BME280;47577;43.610;25.010;2024-03-23T12:50:02;100030.13;;;19.86;24.39
61682;BME280;47577;43.610;25.010;2024-03-23T12:52:28;100022.97;;;19.38;25.74
61682;BME280;47577;43.610;25.010;2024-03-23T12:54:58;100011.34;;;19.84;26.96
61682;BME280;47577;43.610;25.010;2024-03-23T12:57:24;100004.34;;;20.38;25.70
61682;BME280;47577;43.610;25.010;2024-03-23T12:59:51;100012.09;;;20.43;24.58
61682;BME280;47577;43.610;25.010;2024-03-23T13:02:21;99999.28;;;20.56;24.79
61682;BME280;47577;43.610;25.010;2024-03-23T13:04:49;100006.31;;;20.48;24.68
61682;BME280;47577;43.610;25.010;2024-03-23T13:07:16;100007.50;;;20.77;24.86
61682;BME280;47577;43.610;25.010;2024-03-23T13:09:42;100007.50;;;21.10;24.84
61682;BME280;47577;43.610;25.010;2024-03-23T13:12:08;100010.47;;;20.29;24.82
61682;BME280;47577;43.610;25.010;2024-03-23T13:14:33;99998.22;;;20.36;25.14
61682;BME280;47577;43.610;25.010;2024-03-23T13:16:59;99993.44;;;19.83;25.11
61682;BME280;47577;43.610;25.010;2024-03-23T13:19:25;99990.19;;;19.67;25.92
61682;BME280;47577;43.610;25.010;2024-03-23T13:21:55;99987.28;;;19.70;25.86
61682;BME280;47577;43.610;25.010;2024-03-23T13:24:24;99974.06;;;20.35;25.22
61682;BME280;47577;43.610;25.010;2024-03-23T13:26:51;99963.72;;;20.40;24.80
61682;BME280;47577;43.610;25.010;2024-03-23T13:29:18;99966.56;;;20.27;25.32
61682;BME280;47577;43.610;25.010;2024-03-23T13:31:44;99966.84;;;20.79;25.99
61682;BME280;47577;43.610;25.010;2024-03-23T13:34:09;99962.38;;;20.23;24.63
61682;BME280;47577;43.610;25.010;2024-03-23T13:36:35;99965.38;;;20.75;24.48
61682;BME280;47577;43.610;25.010;2024-03-23T13:39:02;99960.00;;;20.63;24.55
61682;BME280;47577;43.610;25.010;2024-03-23T13:41:31;99955.19;;;20.12;24.06
61682;BME280;47577;43.610;25.010;2024-03-23T13:43:57;99961.78;;;20.08;23.67